sensor_id;sensor_type;location;lat;lon;timestamp;P1;durP1;ratioP1;P2;durP2;ratioP2
22949;SDS011;11641;51.018;4.474;2023-02-20T00:01:25;19.17;;;10.10;;
22949;SDS011;11641;51.018;4.474;2023-02-20T00:03:52;18.73;;;9.60;;
22949;SDS011;11641;51.018;4.474;2023-02-20T00:06:18;19.27;;;8.88;;
22949;SDS011;11641;51.018;4.474;2023-02-20T00:08:43;22.98;;;10.20;;
22949;SDS011;11641;51.018;4.474;2023-02-20T00:11:12;23.98;;;10.05;;
22949;SDS011;11641;51.018;4.474;2023-02-20T00:13:37;20.70;;;9.25;;
22949;SDS011;11641;51.018;4.474;2023-02-20T00:16:08;22.58;;;10.40;;
22949;SDS011;11641;51.018;4.474;2023-02-20T00:18:34;21.17;;;10.07;;
22949;SDS011;11641;51.018;4.474;2023-02-20T00:21:00;20.45;;;9.50;;
22949;SDS011;11641;51.018;4.474;2023-02-20T00:23:26;19.40;;;9.90;;
22949;SDS011;11641;51.018;4.474;2023-02-20T00:25:52;22.23;;;10.82;;
22949;SDS011;11641;51.018;4.474;2023-02-20T00:28:18;24.50;;;9.88;;
22949;SDS011;11641;51.018;4.474;2023-02-20T00:30:45;29.55;;;10.18;;
22949;SDS011;11641;51.018;4.474;2023-02-20T00:33:11;21.38;;;8.43;;
22949;SDS011;11641;51.018;4.474;2023-02-20T00:35:36;16.52;;;6.97;;
22949;SDS011;11641;51.018;4.474;2023-02-20T00:38:02;18.35;;;9.50;;
22949;SDS011;11641;51.018;4.474;2023-02-20T00:40:28;19.67;;;8.90;;
22949;SDS011;11641;51.018;4.474;2023-02-20T00:42:54;18.48;;;8.77;;
22949;SDS011;11641;51.018;4.474;2023-02-20T00:45:19;20.33;;;9.15;;
22949;SDS011;11641;51.018;4.474;2023-02-20T00:47:45;21.45;;;8.48;;
22949;SDS011;11641;51.018;4.474;2023-02-20T00:50:14;24.27;;;8.57;;
22949;SDS011;11641;51.018;4.474;2023-02-20T00:52:40;20.67;;;9.68;;
22949;SDS011;11641;51.018;4.474;2023-02-20T00:55:06;23.52;;;8.95;;
22949;SDS011;11641;51.018;4.474;2023-02-20T00:57:32;23.15;;;9.85;;
22949;SDS011;11641;51.018;4.474;2023-02-20T00:59:58;21.55;;;9.65;;
22949;SDS011;11641;51.018;4.474;2023-02-20T01:02:23;28.08;;;9.90;;
22949;SDS011;11641;51.018;4.474;2023-02-20T01:04:49;19.42;;;9.30;;
22949;SDS011;11641;51.018;4.474;2023-02-20T01:07:17;30.88;;;11.15;;
22949;SDS011;11641;51.018;4.474;2023-02-20T01:09:43;23.38;;;10.82;;
22949;SDS011;11641;51.018;4.474;2023-02-20T01:12:09;22.35;;;11.73;;
22949;SDS011;11641;51.018;4.474;2023-02-20T01:14:35;23.90;;;12.93;;
22949;SDS011;11641;51.018;4.474;2023-02-20T01:17:00;23.52;;;11.98;;
22949;SDS011;11641;51.018;4.474;2023-02-20T01:19:26;28.23;;;12.20;;
22949;SDS011;11641;51.018;4.474;2023-02-20T01:21:52;28.13;;;13.63;;
22949;SDS011;11641;51.018;4.474;2023-02-20T01:24:18;28.92;;;12.90;;
22949;SDS011;11641;51.018;4.474;2023-02-20T01:26:44;31.45;;;14.25;;
22949;SDS011;11641;51.018;4.474;2023-02-20T01:29:10;26.83;;;13.82;;
22949;SDS011;11641;51.018;4.474;2023-02-20T01:31:36;28.67;;;13.80;;
22949;SDS011;11641;51.018;4.474;2023-02-20T01:34:02;33.03;;;14.98;;
22949;SDS011;11641;51.018;4.474;2023-02-20T01:36:28;36.45;;;14.77;;
22949;SDS011;11641;51.018;4.474;2023-02-20T01:38:54;33.90;;;15.10;;
22949;SDS011;11641;51.018;4.474;2023-02-20T01:41:21;29.92;;;15.27;;
22949;SDS011;11641;51.018;4.474;2023-02-20T01:43:51;34.28;;;16.23;;
22949;SDS011;11641;51.018;4.474;2023-02-20T01:48:56;37.85;;;17.05;;
22949;SDS011;11641;51.018;4.474;2023-02-20T01:51:23;37.55;;;15.13;;
22949;SDS011;11641;51.018;4.474;2023-02-20T01:53:48;33.28;;;16.50;;
22949;SDS011;11641;51.018;4.474;2023-02-20T01:56:14;34.08;;;15.75;;
22949;SDS011;11641;51.018;4.474;2023-02-20T01:58:41;29.08;;;15.25;;
22949;SDS011;11641;51.018;4.474;2023-02-20T02:01:09;34.90;;;16.08;;
22949;SDS011;11641;51.018;4.474;2023-02-20T02:03:36;24.75;;;15.63;;
22949;SDS011;11641;51.018;4.474;2023-02-20T02:06:07;30.55;;;15.15;;
22949;SDS011;11641;51.018;4.474;2023-02-20T02:08:36;28.20;;;14.95;;
22949;SDS011;11641;51.018;4.474;2023-02-20T02:13:33;28.63;;;14.43;;
22949;SDS011;11641;51.018;4.474;2023-02-20T02:16:04;26.58;;;14.07;;
22949;SDS011;11641;51.018;4.474;2023-02-20T02:24:45;24.40;;;12.70;;
22949;SDS011;11641;51.018;4.474;2023-02-20T02:27:29;20.00;;;12.48;;
22949;SDS011;11641;51.018;4.474;2023-02-20T02:33:22;26.50;;;12.18;;
22949;SDS011;11641;51.018;4.474;2023-02-20T02:41:39;24.17;;;10.98;;
22949;SDS011;11641;51.018;4.474;2023-02-20T02:44:39;21.00;;;11.45;;
22949;SDS011;11641;51.018;4.474;2023-02-20T02:47:27;28.98;;;11.13;;
22949;SDS011;11641;51.018;4.474;2023-02-20T02:49:57;20.27;;;10.50;;
22949;SDS011;11641;51.018;4.474;2023-02-20T02:52:29;23.20;;;10.82;;
22949;SDS011;11641;51.018;4.474;2023-02-20T02:55:09;28.52;;;11.38;;
22949;SDS011;11641;51.018;4.474;2023-02-20T02:57:35;25.35;;;11.02;;
22949;SDS011;11641;51.018;4.474;2023-02-20T03:00:05;27.55;;;12.18;;
22949;SDS011;11641;51.018;4.474;2023-02-20T03:02:47;23.30;;;11.23;;
22949;SDS011;11641;51.018;4.474;2023-02-20T03:05:16;25.30;;;11.13;;
22949;SDS011;11641;51.018;4.474;2023-02-20T03:07:44;32.15;;;13.35;;
22949;SDS011;11641;51.018;4.474;2023-02-20T03:10:14;32.92;;;13.07;;
22949;SDS011;11641;51.018;4.474;2023-02-20T03:12:46;30.80;;;14.68;;
22949;SDS011;11641;51.018;4.474;2023-02-20T03:15:22;36.13;;;15.73;;
22949;SDS011;11641;51.018;4.474;2023-02-20T03:20:53;36.08;;;17.10;;
22949;SDS011;11641;51.018;4.474;2023-02-20T03:23:23;44.35;;;17.98;;
22949;SDS011;11641;51.018;4.474;2023-02-20T03:26:17;38.33;;;17.17;;
22949;SDS011;11641;51.018;4.474;2023-02-20T03:29:07;41.50;;;17.83;;
22949;SDS011;11641;51.018;4.474;2023-02-20T03:31:53;31.13;;;13.52;;
22949;SDS011;11641;51.018;4.474;2023-02-20T03:34:49;35.67;;;16.40;;
22949;SDS011;11641;51.018;4.474;2023-02-20T03:37:36;41.85;;;17.85;;
22949;SDS011;11641;51.018;4.474;2023-02-20T03:40:23;39.67;;;18.13;;
22949;SDS011;11641;51.018;4.474;2023-02-20T03:43:10;44.97;;;17.40;;
22949;SDS011;11641;51.018;4.474;2023-02-20T03:45:59;41.70;;;17.63;;
22949;SDS011;11641;51.018;4.474;2023-02-20T03:48:42;30.92;;;14.43;;
22949;SDS011;11641;51.018;4.474;2023-02-20T03:51:16;47.55;;;18.08;;
22949;SDS011;11641;51.018;4.474;2023-02-20T03:53:42;38.47;;;17.60;;
22949;SDS011;11641;51.018;4.474;2023-02-20T03:56:19;48.03;;;19.13;;
22949;SDS011;11641;51.018;4.474;2023-02-20T03:58:53;40.22;;;18.33;;
22949;SDS011;11641;51.018;4.474;2023-02-20T04:01:25;42.22;;;19.23;;
22949;SDS011;11641;51.018;4.474;2023-02-20T04:03:51;45.55;;;17.70;;
22949;SDS011;11641;51.018;4.474;2023-02-20T04:06:22;41.00;;;19.27;;
22949;SDS011;11641;51.018;4.474;2023-02-20T04:09:26;39.63;;;16.90;;
22949;SDS011;11641;51.018;4.474;2023-02-20T04:11:55;41.45;;;17.02;;
22949;SDS011;11641;51.018;4.474;2023-02-20T04:14:26;35.97;;;16.25;;
22949;SDS011;11641;51.018;4.474;2023-02-20T04:16:55;37.17;;;16.95;;
22949;SDS011;11641;51.018;4.474;2023-02-20T04:19:27;37.75;;;16.67;;
22949;SDS011;11641;51.018;4.474;2023-02-20T04:21:58;36.45;;;16.92;;
22949;SDS011;11641;51.018;4.474;2023-02-20T04:24:33;33.47;;;15.07;;
22949;SDS011;11641;51.018;4.474;2023-02-20T04:27:09;30.40;;;13.25;;
22949;SDS011;11641;51.018;4.474;2023-02-20T04:29:36;32.45;;;12.95;;
22949;SDS011;11641;51.018;4.474;2023-02-20T04:32:02;39.45;;;13.30;;
22949;SDS011;11641;51.018;4.474;2023-02-20T04:34:27;33.15;;;12.90;;
22949;SDS011;11641;51.018;4.474;2023-02-20T04:36:57;23.30;;;9.55;;
22949;SDS011;11641;51.018;4.474;2023-02-20T04:39:38;31.42;;;12.77;;
22949;SDS011;11641;51.018;4.474;2023-02-20T04:42:07;37.03;;;13.35;;
22949;SDS011;11641;51.018;4.474;2023-02-20T04:44:33;31.88;;;12.32;;
22949;SDS011;11641;51.018;4.474;2023-02-20T04:47:01;27.02;;;12.73;;
22949;SDS011;11641;51.018;4.474;2023-02-20T04:49:32;27.10;;;12.23;;
22949;SDS011;11641;51.018;4.474;2023-02-20T04:51:58;29.42;;;11.48;;
22949;SDS011;11641;51.018;4.474;2023-02-20T04:54:24;29.85;;;12.60;;
22949;SDS011;11641;51.018;4.474;2023-02-20T04:56:50;27.45;;;11.20;;
22949;SDS011;11641;51.018;4.474;2023-02-20T04:59:16;30.85;;;12.68;;
22949;SDS011;11641;51.018;4.474;2023-02-20T05:01:43;29.33;;;11.73;;
22949;SDS011;11641;51.018;4.474;2023-02-20T05:04:13;25.70;;;11.05;;
22949;SDS011;11641;51.018;4.474;2023-02-20T05:06:47;26.67;;;10.48;;
22949;SDS011;11641;51.018;4.474;2023-02-20T05:09:15;21.60;;;10.70;;
22949;SDS011;11641;51.018;4.474;2023-02-20T05:11:41;27.30;;;11.52;;
22949;SDS011;11641;51.018;4.474;2023-02-20T05:14:07;30.77;;;11.80;;
22949;SDS011;11641;51.018;4.474;2023-02-20T05:16:35;22.85;;;11.45;;
22949;SDS011;11641;51.018;4.474;2023-02-20T05:19:02;31.13;;;11.93;;
22949;SDS011;11641;51.018;4.474;2023-02-20T05:21:27;19.98;;;9.38;;
22949;SDS011;11641;51.018;4.474;2023-02-20T05:24:12;20.27;;;10.00;;
22949;SDS011;11641;51.018;4.474;2023-02-20T05:26:38;18.63;;;7.93;;
22949;SDS011;11641;51.018;4.474;2023-02-20T05:29:04;18.35;;;8.65;;
22949;SDS011;11641;51.018;4.474;2023-02-20T05:31:30;18.35;;;7.05;;
22949;SDS011;11641;51.018;4.474;2023-02-20T05:33:56;22.90;;;6.07;;
22949;SDS011;11641;51.018;4.474;2023-02-20T05:36:22;17.10;;;6.53;;
22949;SDS011;11641;51.018;4.474;2023-02-20T05:38:47;21.67;;;7.15;;
22949;SDS011;11641;51.018;4.474;2023-02-20T05:41:17;21.63;;;7.95;;
22949;SDS011;11641;51.018;4.474;2023-02-20T05:43:43;21.50;;;7.68;;
22949;SDS011;11641;51.018;4.474;2023-02-20T05:46:10;24.42;;;8.35;;
22949;SDS011;11641;51.018;4.474;2023-02-20T05:48:38;25.75;;;8.98;;
22949;SDS011;11641;51.018;4.474;2023-02-20T05:51:04;21.75;;;9.60;;
22949;SDS011;11641;51.018;4.474;2023-02-20T05:53:33;19.85;;;7.68;;
22949;SDS011;11641;51.018;4.474;2023-02-20T05:55:58;22.38;;;7.65;;
22949;SDS011;11641;51.018;4.474;2023-02-20T05:58:24;21.48;;;7.57;;
22949;SDS011;11641;51.018;4.474;2023-02-20T06:00:53;12.35;;;5.30;;
22949;SDS011;11641;51.018;4.474;2023-02-20T06:03:18;16.60;;;6.40;;
22949;SDS011;11641;51.018;4.474;2023-02-20T06:05:44;24.83;;;7.38;;
22949;SDS011;11641;51.018;4.474;2023-02-20T06:08:10;18.80;;;7.13;;
22949;SDS011;11641;51.018;4.474;2023-02-20T06:10:36;17.73;;;6.47;;
22949;SDS011;11641;51.018;4.474;2023-02-20T06:13:01;23.40;;;7.70;;
22949;SDS011;11641;51.018;4.474;2023-02-20T06:15:27;19.27;;;6.80;;
22949;SDS011;11641;51.018;4.474;2023-02-20T06:17:53;22.25;;;7.03;;
22949;SDS011;11641;51.018;4.474;2023-02-20T06:20:19;17.13;;;6.05;;
22949;SDS011;11641;51.018;4.474;2023-02-20T06:22:46;14.65;;;5.70;;
22949;SDS011;11641;51.018;4.474;2023-02-20T06:25:13;13.73;;;5.35;;
22949;SDS011;11641;51.018;4.474;2023-02-20T06:27:39;18.20;;;4.93;;
22949;SDS011;11641;51.018;4.474;2023-02-20T06:30:05;19.73;;;5.60;;
22949;SDS011;11641;51.018;4.474;2023-02-20T06:32:30;13.98;;;5.68;;
22949;SDS011;11641;51.018;4.474;2023-02-20T06:34:57;16.35;;;6.03;;
22949;SDS011;11641;51.018;4.474;2023-02-20T06:37:23;16.67;;;5.95;;
22949;SDS011;11641;51.018;4.474;2023-02-20T06:39:51;24.55;;;7.00;;
22949;SDS011;11641;51.018;4.474;2023-02-20T06:42:17;14.77;;;6.03;;
22949;SDS011;11641;51.018;4.474;2023-02-20T06:44:43;19.30;;;6.20;;
22949;SDS011;11641;51.018;4.474;2023-02-20T06:47:08;17.55;;;6.03;;
22949;SDS011;11641;51.018;4.474;2023-02-20T06:49:35;21.98;;;7.30;;
22949;SDS011;11641;51.018;4.474;2023-02-20T06:52:03;15.77;;;6.57;;
22949;SDS011;11641;51.018;4.474;2023-02-20T06:54:31;13.93;;;5.90;;
22949;SDS011;11641;51.018;4.474;2023-02-20T06:56:59;16.25;;;6.50;;
22949;SDS011;11641;51.018;4.474;2023-02-20T06:59:26;18.75;;;6.40;;
22949;SDS011;11641;51.018;4.474;2023-02-20T07:01:51;16.60;;;6.72;;
22949;SDS011;11641;51.018;4.474;2023-02-20T07:04:22;14.32;;;5.57;;
22949;SDS011;11641;51.018;4.474;2023-02-20T07:06:50;17.75;;;6.95;;
22949;SDS011;11641;51.018;4.474;2023-02-20T07:09:16;20.55;;;7.00;;
22949;SDS011;11641;51.018;4.474;2023-02-20T07:11:44;17.45;;;6.18;;
22949;SDS011;11641;51.018;4.474;2023-02-20T07:14:10;19.13;;;7.63;;
22949;SDS011;11641;51.018;4.474;2023-02-20T07:16:36;21.13;;;7.80;;
22949;SDS011;11641;51.018;4.474;2023-02-20T07:19:02;18.42;;;6.90;;
22949;SDS011;11641;51.018;4.474;2023-02-20T07:21:28;22.48;;;7.07;;
22949;SDS011;11641;51.018;4.474;2023-02-20T07:23:54;20.02;;;7.68;;
22949;SDS011;11641;51.018;4.474;2023-02-20T07:26:21;22.48;;;6.72;;
22949;SDS011;11641;51.018;4.474;2023-02-20T07:28:48;20.60;;;7.13;;
22949;SDS011;11641;51.018;4.474;2023-02-20T07:31:15;13.82;;;7.25;;
22949;SDS011;11641;51.018;4.474;2023-02-20T07:33:40;21.65;;;8.23;;
22949;SDS011;11641;51.018;4.474;2023-02-20T07:36:11;21.35;;;7.18;;
22949;SDS011;11641;51.018;4.474;2023-02-20T07:38:38;15.73;;;7.10;;
22949;SDS011;11641;51.018;4.474;2023-02-20T07:41:04;20.73;;;6.90;;
22949;SDS011;11641;51.018;4.474;2023-02-20T07:43:30;27.13;;;7.45;;
22949;SDS011;11641;51.018;4.474;2023-02-20T07:45:56;22.75;;;7.25;;
22949;SDS011;11641;51.018;4.474;2023-02-20T07:48:22;22.45;;;7.10;;
22949;SDS011;11641;51.018;4.474;2023-02-20T07:50:48;18.42;;;7.88;;
22949;SDS011;11641;51.018;4.474;2023-02-20T07:53:16;17.95;;;7.13;;
22949;SDS011;11641;51.018;4.474;2023-02-20T07:55:43;15.95;;;6.70;;
22949;SDS011;11641;51.018;4.474;2023-02-20T07:58:09;18.95;;;7.50;;
22949;SDS011;11641;51.018;4.474;2023-02-20T08:00:35;19.30;;;7.72;;
22949;SDS011;11641;51.018;4.474;2023-02-20T08:03:01;23.33;;;6.80;;
22949;SDS011;11641;51.018;4.474;2023-02-20T08:05:26;16.52;;;6.03;;
22949;SDS011;11641;51.018;4.474;2023-02-20T08:07:53;17.63;;;6.88;;
22949;SDS011;11641;51.018;4.474;2023-02-20T08:10:20;16.48;;;6.80;;
22949;SDS011;11641;51.018;4.474;2023-02-20T08:12:50;21.30;;;8.13;;
22949;SDS011;11641;51.018;4.474;2023-02-20T08:15:18;21.95;;;6.28;;
22949;SDS011;11641;51.018;4.474;2023-02-20T08:17:44;13.63;;;6.10;;
22949;SDS011;11641;51.018;4.474;2023-02-20T08:20:10;16.35;;;6.45;;
22949;SDS011;11641;51.018;4.474;2023-02-20T08:22:37;18.95;;;6.47;;
22949;SDS011;11641;51.018;4.474;2023-02-20T08:25:03;21.17;;;7.28;;
22949;SDS011;11641;51.018;4.474;2023-02-20T08:27:30;20.38;;;6.22;;
22949;SDS011;11641;51.018;4.474;2023-02-20T08:29:57;17.27;;;7.03;;
22949;SDS011;11641;51.018;4.474;2023-02-20T08:32:23;19.15;;;6.82;;
22949;SDS011;11641;51.018;4.474;2023-02-20T08:34:49;14.63;;;5.47;;
22949;SDS011;11641;51.018;4.474;2023-02-20T08:37:14;22.67;;;6.40;;
22949;SDS011;11641;51.018;4.474;2023-02-20T08:39:40;20.27;;;6.38;;
22949;SDS011;11641;51.018;4.474;2023-02-20T08:42:06;15.00;;;6.40;;
22949;SDS011;11641;51.018;4.474;2023-02-20T08:44:31;16.58;;;6.30;;
22949;SDS011;11641;51.018;4.474;2023-02-20T08:46:57;14.68;;;6.55;;
22949;SDS011;11641;51.018;4.474;2023-02-20T08:49:23;19.20;;;6.60;;
22949;SDS011;11641;51.018;4.474;2023-02-20T08:51:52;20.42;;;6.65;;
22949;SDS011;11641;51.018;4.474;2023-02-20T08:54:19;18.33;;;5.85;;
22949;SDS011;11641;51.018;4.474;2023-02-20T08:56:45;18.77;;;6.53;;
22949;SDS011;11641;51.018;4.474;2023-02-20T08:59:11;16.02;;;6.03;;
22949;SDS011;11641;51.018;4.474;2023-02-20T09:01:39;21.88;;;6.18;;
22949;SDS011;11641;51.018;4.474;2023-02-20T09:04:06;19.75;;;7.18;;
22949;SDS011;11641;51.018;4.474;2023-02-20T09:06:33;16.60;;;6.53;;
22949;SDS011;11641;51.018;4.474;2023-02-20T09:08:59;17.75;;;6.10;;
22949;SDS011;11641;51.018;4.474;2023-02-20T09:11:24;19.73;;;6.55;;
22949;SDS011;11641;51.018;4.474;2023-02-20T09:13:50;17.30;;;6.15;;
22949;SDS011;11641;51.018;4.474;2023-02-20T09:16:18;14.60;;;6.90;;
22949;SDS011;11641;51.018;4.474;2023-02-20T09:18:47;19.33;;;6.28;;
22949;SDS011;11641;51.018;4.474;2023-02-20T09:21:15;22.88;;;6.15;;
22949;SDS011;11641;51.018;4.474;2023-02-20T09:23:42;19.40;;;6.65;;
22949;SDS011;11641;51.018;4.474;2023-02-20T09:26:08;20.08;;;7.72;;
22949;SDS011;11641;51.018;4.474;2023-02-20T09:28:34;18.60;;;5.53;;
22949;SDS011;11641;51.018;4.474;2023-02-20T09:31:01;14.90;;;6.22;;
22949;SDS011;11641;51.018;4.474;2023-02-20T09:33:29;14.75;;;6.35;;
22949;SDS011;11641;51.018;4.474;2023-02-20T09:35:55;19.10;;;6.10;;
22949;SDS011;11641;51.018;4.474;2023-02-20T09:38:21;17.55;;;6.22;;
22949;SDS011;11641;51.018;4.474;2023-02-20T09:40:51;17.38;;;5.80;;
22949;SDS011;11641;51.018;4.474;2023-02-20T09:46:01;16.20;;;6.15;;
22949;SDS011;11641;51.018;4.474;2023-02-20T09:51:24;15.27;;;6.15;;
22949;SDS011;11641;51.018;4.474;2023-02-20T09:54:11;16.63;;;5.82;;
22949;SDS011;11641;51.018;4.474;2023-02-20T09:56:38;15.68;;;6.68;;
22949;SDS011;11641;51.018;4.474;2023-02-20T09:59:17;15.15;;;6.95;;
22949;SDS011;11641;51.018;4.474;2023-02-20T10:01:55;25.38;;;7.55;;
22949;SDS011;11641;51.018;4.474;2023-02-20T10:04:49;19.17;;;5.97;;
22949;SDS011;11641;51.018;4.474;2023-02-20T10:07:20;23.73;;;6.30;;
22949;SDS011;11641;51.018;4.474;2023-02-20T10:09:53;23.05;;;5.90;;
22949;SDS011;11641;51.018;4.474;2023-02-20T10:17:46;22.60;;;6.93;;
22949;SDS011;11641;51.018;4.474;2023-02-20T10:25:37;21.65;;;8.63;;
22949;SDS011;11641;51.018;4.474;2023-02-20T10:28:08;13.52;;;5.45;;
22949;SDS011;11641;51.018;4.474;2023-02-20T10:36:03;20.70;;;7.05;;
22949;SDS011;11641;51.018;4.474;2023-02-20T10:38:37;19.00;;;6.20;;
22949;SDS011;11641;51.018;4.474;2023-02-20T10:41:08;16.95;;;5.85;;
22949;SDS011;11641;51.018;4.474;2023-02-20T10:43:43;19.88;;;6.07;;
22949;SDS011;11641;51.018;4.474;2023-02-20T10:46:12;17.38;;;5.95;;
22949;SDS011;11641;51.018;4.474;2023-02-20T10:48:44;13.87;;;5.90;;
22949;SDS011;11641;51.018;4.474;2023-02-20T10:51:35;16.52;;;6.05;;
22949;SDS011;11641;51.018;4.474;2023-02-20T10:54:06;19.48;;;5.90;;
22949;SDS011;11641;51.018;4.474;2023-02-20T10:59:31;14.95;;;5.68;;
22949;SDS011;11641;51.018;4.474;2023-02-20T11:02:07;14.63;;;6.18;;
22949;SDS011;11641;51.018;4.474;2023-02-20T11:04:41;17.67;;;5.97;;
22949;SDS011;11641;51.018;4.474;2023-02-20T11:07:23;25.38;;;7.85;;
22949;SDS011;11641;51.018;4.474;2023-02-20T11:09:50;16.30;;;6.40;;
22949;SDS011;11641;51.018;4.474;2023-02-20T11:12:25;15.80;;;7.07;;
22949;SDS011;11641;51.018;4.474;2023-02-20T11:14:58;16.45;;;6.97;;
22949;SDS011;11641;51.018;4.474;2023-02-20T11:17:29;19.30;;;6.65;;
22949;SDS011;11641;51.018;4.474;2023-02-20T11:19:59;18.90;;;6.88;;
22949;SDS011;11641;51.018;4.474;2023-02-20T11:22:44;18.85;;;7.15;;
22949;SDS011;11641;51.018;4.474;2023-02-20T11:27:40;19.48;;;7.10;;
22949;SDS011;11641;51.018;4.474;2023-02-20T11:35:47;18.77;;;6.65;;
22949;SDS011;11641;51.018;4.474;2023-02-20T11:38:33;15.02;;;5.97;;
22949;SDS011;11641;51.018;4.474;2023-02-20T11:41:01;12.18;;;5.53;;
22949;SDS011;11641;51.018;4.474;2023-02-20T11:43:42;14.95;;;7.32;;
22949;SDS011;11641;51.018;4.474;2023-02-20T11:46:16;16.20;;;6.30;;
22949;SDS011;11641;51.018;4.474;2023-02-20T12:04:40;10.35;;;5.40;;
22949;SDS011;11641;51.018;4.474;2023-02-20T12:09:47;12.40;;;4.90;;
22949;SDS011;11641;51.018;4.474;2023-02-20T12:12:17;16.33;;;5.60;;
22949;SDS011;11641;51.018;4.474;2023-02-20T12:14:50;15.98;;;5.40;;
22949;SDS011;11641;51.018;4.474;2023-02-20T12:20:15;12.35;;;4.50;;
22949;SDS011;11641;51.018;4.474;2023-02-20T12:25:47;15.65;;;5.43;;
22949;SDS011;11641;51.018;4.474;2023-02-20T12:34:07;12.73;;;3.15;;
22949;SDS011;11641;51.018;4.474;2023-02-20T12:36:39;8.60;;;4.35;;
22949;SDS011;11641;51.018;4.474;2023-02-20T12:50:17;12.52;;;4.53;;
22949;SDS011;11641;51.018;4.474;2023-02-20T12:55:21;15.50;;;5.20;;
22949;SDS011;11641;51.018;4.474;2023-02-20T13:00:52;12.48;;;4.90;;
22949;SDS011;11641;51.018;4.474;2023-02-20T13:03:34;14.70;;;5.63;;
22949;SDS011;11641;51.018;4.474;2023-02-20T13:06:02;12.70;;;6.03;;
22949;SDS011;11641;51.018;4.474;2023-02-20T13:08:29;13.52;;;5.72;;
22949;SDS011;11641;51.018;4.474;2023-02-20T13:11:16;13.18;;;5.78;;
22949;SDS011;11641;51.018;4.474;2023-02-20T13:13:57;13.02;;;4.35;;
22949;SDS011;11641;51.018;4.474;2023-02-20T13:22:00;11.85;;;5.05;;
22949;SDS011;11641;51.018;4.474;2023-02-20T13:24:31;13.35;;;4.95;;
22949;SDS011;11641;51.018;4.474;2023-02-20T13:27:00;12.30;;;4.78;;
22949;SDS011;11641;51.018;4.474;2023-02-20T13:29:32;12.07;;;4.38;;
22949;SDS011;11641;51.018;4.474;2023-02-20T13:34:44;12.90;;;4.30;;
22949;SDS011;11641;51.018;4.474;2023-02-20T13:39:57;13.63;;;5.07;;
22949;SDS011;11641;51.018;4.474;2023-02-20T13:45:46;19.45;;;4.38;;
22949;SDS011;11641;51.018;4.474;2023-02-20T13:48:46;11.65;;;3.90;;
22949;SDS011;11641;51.018;4.474;2023-02-20T13:56:26;13.88;;;5.35;;
22949;SDS011;11641;51.018;4.474;2023-02-20T13:59:09;13.20;;;4.85;;
22949;SDS011;11641;51.018;4.474;2023-02-20T14:04:33;15.48;;;4.53;;
22949;SDS011;11641;51.018;4.474;2023-02-20T14:06:59;11.77;;;4.47;;
22949;SDS011;11641;51.018;4.474;2023-02-20T14:09:26;15.38;;;5.05;;
22949;SDS011;11641;51.018;4.474;2023-02-20T14:12:00;15.98;;;4.20;;
22949;SDS011;11641;51.018;4.474;2023-02-20T14:14:33;17.85;;;4.60;;
22949;SDS011;11641;51.018;4.474;2023-02-20T14:17:12;12.00;;;4.72;;
22949;SDS011;11641;51.018;4.474;2023-02-20T14:19:41;15.40;;;4.88;;
22949;SDS011;11641;51.018;4.474;2023-02-20T14:22:30;11.50;;;3.88;;
22949;SDS011;11641;51.018;4.474;2023-02-20T14:27:35;14.45;;;4.40;;
22949;SDS011;11641;51.018;4.474;2023-02-20T14:30:05;13.27;;;4.55;;
22949;SDS011;11641;51.018;4.474;2023-02-20T14:32:33;11.18;;;4.15;;
22949;SDS011;11641;51.018;4.474;2023-02-20T14:35:03;13.75;;;3.83;;
22949;SDS011;11641;51.018;4.474;2023-02-20T14:42:43;17.80;;;4.65;;
22949;SDS011;11641;51.018;4.474;2023-02-20T14:45:20;13.93;;;4.15;;
22949;SDS011;11641;51.018;4.474;2023-02-20T14:47:56;8.00;;;4.13;;
22949;SDS011;11641;51.018;4.474;2023-02-20T14:50:36;9.88;;;4.90;;
22949;SDS011;11641;51.018;4.474;2023-02-20T14:55:30;11.73;;;4.45;;
22949;SDS011;11641;51.018;4.474;2023-02-20T14:57:56;12.65;;;4.10;;
22949;SDS011;11641;51.018;4.474;2023-02-20T15:00:23;12.77;;;4.57;;
22949;SDS011;11641;51.018;4.474;2023-02-20T15:02:56;10.75;;;4.43;;
22949;SDS011;11641;51.018;4.474;2023-02-20T15:05:29;9.25;;;4.80;;
22949;SDS011;11641;51.018;4.474;2023-02-20T15:08:31;13.75;;;4.10;;
22949;SDS011;11641;51.018;4.474;2023-02-20T15:10:56;10.55;;;5.30;;
22949;SDS011;11641;51.018;4.474;2023-02-20T15:13:29;11.60;;;4.47;;
22949;SDS011;11641;51.018;4.474;2023-02-20T15:16:04;11.13;;;4.72;;
22949;SDS011;11641;51.018;4.474;2023-02-20T15:18:43;12.50;;;5.43;;
22949;SDS011;11641;51.018;4.474;2023-02-20T15:21:13;13.10;;;4.88;;
22949;SDS011;11641;51.018;4.474;2023-02-20T15:23:53;15.50;;;5.07;;
22949;SDS011;11641;51.018;4.474;2023-02-20T15:26:28;12.63;;;5.60;;
22949;SDS011;11641;51.018;4.474;2023-02-20T15:31:43;15.80;;;5.05;;
22949;SDS011;11641;51.018;4.474;2023-02-20T15:34:17;14.38;;;5.50;;
22949;SDS011;11641;51.018;4.474;2023-02-20T15:36:47;14.52;;;6.22;;
22949;SDS011;11641;51.018;4.474;2023-02-20T15:39:21;13.75;;;5.90;;
22949;SDS011;11641;51.018;4.474;2023-02-20T15:41:47;13.18;;;5.05;;
22949;SDS011;11641;51.018;4.474;2023-02-20T15:44:15;11.20;;;6.32;;
22949;SDS011;11641;51.018;4.474;2023-02-20T15:46:41;14.48;;;6.43;;
22949;SDS011;11641;51.018;4.474;2023-02-20T15:49:07;15.50;;;6.15;;
22949;SDS011;11641;51.018;4.474;2023-02-20T15:51:35;17.52;;;5.38;;
22949;SDS011;11641;51.018;4.474;2023-02-20T15:54:03;12.80;;;4.95;;
22949;SDS011;11641;51.018;4.474;2023-02-20T15:56:31;13.85;;;5.72;;
22949;SDS011;11641;51.018;4.474;2023-02-20T15:59:09;14.40;;;6.32;;
22949;SDS011;11641;51.018;4.474;2023-02-20T16:01:38;11.40;;;5.30;;
22949;SDS011;11641;51.018;4.474;2023-02-20T16:04:08;10.45;;;5.60;;
22949;SDS011;11641;51.018;4.474;2023-02-20T16:06:38;14.30;;;5.75;;
22949;SDS011;11641;51.018;4.474;2023-02-20T16:09:05;16.05;;;6.65;;
22949;SDS011;11641;51.018;4.474;2023-02-20T16:11:39;16.02;;;5.65;;
22949;SDS011;11641;51.018;4.474;2023-02-20T16:14:07;13.00;;;4.93;;
22949;SDS011;11641;51.018;4.474;2023-02-20T16:16:44;18.20;;;4.78;;
22949;SDS011;11641;51.018;4.474;2023-02-20T16:19:19;13.05;;;5.65;;
22949;SDS011;11641;51.018;4.474;2023-02-20T16:21:52;12.88;;;6.32;;
22949;SDS011;11641;51.018;4.474;2023-02-20T16:24:17;15.13;;;6.32;;
22949;SDS011;11641;51.018;4.474;2023-02-20T16:26:45;17.05;;;5.93;;
22949;SDS011;11641;51.018;4.474;2023-02-20T16:29:19;11.60;;;4.80;;
22949;SDS011;11641;51.018;4.474;2023-02-20T16:34:17;15.55;;;5.28;;
22949;SDS011;11641;51.018;4.474;2023-02-20T16:36:44;16.95;;;5.68;;
22949;SDS011;11641;51.018;4.474;2023-02-20T16:39:09;12.90;;;5.53;;
22949;SDS011;11641;51.018;4.474;2023-02-20T16:41:35;14.35;;;5.65;;
22949;SDS011;11641;51.018;4.474;2023-02-20T16:44:01;10.15;;;5.47;;
22949;SDS011;11641;51.018;4.474;2023-02-20T16:46:27;15.20;;;6.15;;
22949;SDS011;11641;51.018;4.474;2023-02-20T16:48:52;11.88;;;5.15;;
22949;SDS011;11641;51.018;4.474;2023-02-20T16:51:20;14.90;;;6.07;;
22949;SDS011;11641;51.018;4.474;2023-02-20T16:53:48;12.55;;;5.55;;
22949;SDS011;11641;51.018;4.474;2023-02-20T16:56:13;13.18;;;6.22;;
22949;SDS011;11641;51.018;4.474;2023-02-20T16:58:39;16.13;;;5.97;;
22949;SDS011;11641;51.018;4.474;2023-02-20T17:01:05;14.35;;;6.38;;
22949;SDS011;11641;51.018;4.474;2023-02-20T17:03:30;13.30;;;7.00;;
22949;SDS011;11641;51.018;4.474;2023-02-20T17:05:56;11.23;;;6.40;;
22949;SDS011;11641;51.018;4.474;2023-02-20T17:08:24;12.13;;;6.57;;